Time;durP1;ratioP1;P1;durP2;ratioP2;P2;SDS_P1;SDS_P2;PMS_P1;PMS_P2;Temp;Humidity;BMP_temperature;BMP_pressure;BME280_temperature;BME280_humidity;BME280_pressure;Samples;Min_cycle;Max_cycle;Signal;HPM_P1;HPM_P2
2022/02/09 00:21:02;;;;;;;10.18;9.00;;;;;;;;;;4765403;28;20196;-61
2022/02/09 00:40:04;;;;;;;8.07;7.28;;;;;;;;;;4227154;33;20220;-62
2022/02/09 00:42:43;;;;;;;;;;;;;;;;;;4233150;33;20113;-62
2022/02/09 00:59:23;;;;;;;8.73;7.82;;;;;;;;;;4218573;34;20509;-66
2022/02/09 01:41:08;;;;;;;8.05;7.25;;;;;;;;;;4219185;33;20104;-62
2022/02/09 01:57:02;;;;;;;7.22;6.62;;;;;;;;;;4235136;33;20189;-63
2022/02/09 01:59:28;;;;;;;8.07;7.28;;;;;;;;;;4236599;33;20525;-62
2022/02/09 02:01:54;;;;;;;8.18;7.37;;;;;;;;;;4236324;33;20109;-63
2022/02/09 02:04:24;;;;;;;7.80;7.00;;;;;;;;;;4236547;33;20131;-66
2022/02/09 02:06:52;;;;;;;8.40;7.60;;;;;;;;;;4236449;33;20519;-66
2022/02/09 02:09:20;;;;;;;8.32;7.53;;;;;;;;;;4236496;33;20570;-63
2022/02/09 02:14:22;;;;;;;8.52;7.72;;;;;;;;;;4236495;33;20117;-62
2022/02/09 02:16:54;;;;;;;8.55;7.70;;;;;;;;;;4236609;33;20436;-63
2022/02/09 02:38:43;;;;;;;9.52;8.63;;;;;;;;;;4208329;34;20109;-62
2022/02/09 03:13:32;;;;;;;10.55;8.32;;;;;;;;;;4218270;34;20223;-67
2022/02/09 03:16:04;;;;;;;9.43;8.52;;;;;;;;;;4218240;34;20089;-67
2022/02/09 03:19:45;;;;;;;9.00;8.10;;;;;;;;;;4217479;34;20109;-66
2022/02/09 03:24:08;;;;;;;10.97;9.87;;;;;;;;;;4219219;34;20121;-64
2022/02/09 03:54:00;;;;;;;9.23;8.40;;;;;;;;;;4217220;34;20105;-61
2022/02/09 03:56:57;;;;;;;8.90;8.00;;;;;;;;;;4216933;34;20121;-61
2022/02/09 03:59:15;;;;;;;9.07;8.18;;;;;;;;;;4216700;34;20212;-61
2022/02/09 04:01:43;;;;;;;8.55;7.75;;;;;;;;;;4216950;34;20555;-61
2022/02/09 04:04:09;;;;;;;9.50;8.50;;;;;;;;;;4216893;34;20544;-62
2022/02/09 04:06:37;;;;;;;9.38;8.48;;;;;;;;;;4218335;34;20106;-61
2022/02/09 04:09:07;;;;;;;9.32;8.32;;;;;;;;;;4218731;34;20097;-61
2022/02/09 04:11:40;;;;;;;9.60;7.85;;;;;;;;;;4218739;34;20140;-61
2022/02/09 04:14:31;;;;;;;7.93;7.12;;;;;;;;;;4218920;34;20094;-61
2022/02/09 04:19:57;;;;;;;9.90;7.53;;;;;;;;;;4218701;34;20135;-61
2022/02/09 04:41:43;;;;;;;8.43;7.47;;;;;;;;;;4218292;34;20132;-62
2022/02/09 04:54:59;;;;;;;8.40;7.22;;;;;;;;;;4218668;34;20439;-62
2022/02/09 05:00:12;;;;;;;7.70;6.97;;;;;;;;;;4218211;34;20141;-61
2022/02/09 05:17:38;;;;;;;7.80;6.60;;;;;;;;;;4218102;34;20113;-62
2022/02/09 05:26:49;;;;;;;5.80;5.20;;;;;;;;;;4218172;34;20094;-61
2022/02/09 05:29:15;;;;;;;5.93;5.32;;;;;;;;;;4218057;34;20610;-61
2022/02/09 05:31:41;;;;;;;6.45;5.78;;;;;;;;;;4218066;34;20113;-61
2022/02/09 05:34:09;;;;;;;6.22;5.55;;;;;;;;;;4217969;34;20101;-62
2022/02/09 05:36:36;;;;;;;6.05;5.45;;;;;;;;;;4218102;34;20207;-61
2022/02/09 05:39:03;;;;;;;5.90;5.10;;;;;;;;;;4217870;34;20115;-62
2022/02/09 05:41:37;;;;;;;5.57;5.05;;;;;;;;;;4217702;34;20152;-62
2022/02/09 05:44:03;;;;;;;5.80;5.20;;;;;;;;;;4217832;34;20110;-62
2022/02/09 05:51:45;;;;;;;6.85;5.18;;;;;;;;;;4217713;34;20129;-62
2022/02/09 05:56:42;;;;;;;4.95;4.55;;;;;;;;;;4218038;34;20112;-61
2022/02/09 06:01:39;;;;;;;5.28;4.78;;;;;;;;;;4217779;34;20197;-62
2022/02/09 06:04:06;;;;;;;5.03;4.60;;;;;;;;;;4217668;34;20136;-62
2022/02/09 06:06:32;;;;;;;5.53;5.03;;;;;;;;;;4217391;34;20125;-61
2022/02/09 06:09:01;;;;;;;6.10;5.50;;;;;;;;;;4217647;34;20097;-62
2022/02/09 06:21:52;;;;;;;5.87;5.37;;;;;;;;;;4217132;34;20124;-64
2022/02/09 06:24:18;;;;;;;6.00;5.50;;;;;;;;;;4217497;34;20097;-64
2022/02/09 06:26:44;;;;;;;6.12;5.53;;;;;;;;;;4218172;34;20201;-64
2022/02/09 06:29:10;;;;;;;6.85;5.85;;;;;;;;;;4219683;34;20281;-63
2022/02/09 06:31:37;;;;;;;6.53;5.93;;;;;;;;;;4219472;34;20224;-63
2022/02/09 06:34:04;;;;;;;5.78;5.22;;;;;;;;;;4219560;34;20113;-63
2022/02/09 06:36:35;;;;;;;5.80;5.20;;;;;;;;;;4219506;34;20745;-64
2022/02/09 06:39:05;;;;;;;6.68;5.45;;;;;;;;;;4219699;34;20433;-65
2022/02/09 06:41:32;;;;;;;7.32;5.53;;;;;;;;;;4219433;34;20113;-65
2022/02/09 06:43:58;;;;;;;6.28;5.45;;;;;;;;;;4219692;34;20522;-65
2022/02/09 06:46:25;;;;;;;6.43;5.65;;;;;;;;;;4219307;34;20117;-67
2022/02/09 06:48:52;;;;;;;6.45;5.72;;;;;;;;;;4219339;34;20132;-64
2022/02/09 06:51:21;;;;;;;6.55;5.85;;;;;;;;;;4219322;34;20128;-66
2022/02/09 06:54:00;;;;;;;6.22;5.62;;;;;;;;;;4219425;34;20101;-65
2022/02/09 06:56:42;;;;;;;6.32;5.72;;;;;;;;;;4219370;34;20097;-66
2022/02/09 07:01:40;;;;;;;6.20;5.60;;;;;;;;;;4219377;34;20117;-65
2022/02/09 07:04:06;;;;;;;7.25;5.40;;;;;;;;;;4219506;34;20125;-64
2022/02/09 07:06:32;;;;;;;6.25;5.65;;;;;;;;;;4219051;34;20470;-65
2022/02/09 07:08:58;;;;;;;6.53;5.47;;;;;;;;;;4219236;34;20525;-64
2022/02/09 07:11:24;;;;;;;5.50;4.80;;;;;;;;;;4219059;34;20140;-65
2022/02/09 07:13:51;;;;;;;5.68;5.10;;;;;;;;;;4219183;34;20633;-65
2022/02/09 07:16:19;;;;;;;5.97;4.85;;;;;;;;;;4219098;34;20117;-65
2022/02/09 07:18:47;;;;;;;5.72;5.10;;;;;;;;;;4219151;34;20102;-65
2022/02/09 07:21:21;;;;;;;6.85;5.45;;;;;;;;;;4218903;34;20649;-63
2022/02/09 07:23:52;;;;;;;6.53;5.50;;;;;;;;;;4219002;34;20117;-64
2022/02/09 07:28:46;;;;;;;6.95;5.72;;;;;;;;;;4219110;34;20113;-66
2022/02/09 07:31:13;;;;;;;6.53;5.93;;;;;;;;;;4218993;34;20116;-63
2022/02/09 07:33:41;;;;;;;7.57;6.80;;;;;;;;;;4219088;34;20105;-64
2022/02/09 07:36:07;;;;;;;7.03;5.80;;;;;;;;;;4218899;34;20117;-65
2022/02/09 07:38:35;;;;;;;6.07;5.47;;;;;;;;;;4218271;34;20508;-67
2022/02/09 07:41:01;;;;;;;7.35;6.10;;;;;;;;;;4219212;34;20524;-67
2022/02/09 07:44:03;;;;;;;6.53;5.82;;;;;;;;;;4218842;34;20103;-67
2022/02/09 07:49:11;;;;;;;7.72;6.25;;;;;;;;;;4206191;34;20113;-66
2022/02/09 07:54:25;;;;;;;6.72;6.10;;;;;;;;;;4218972;34;20494;-65
2022/02/09 07:56:52;;;;;;;7.18;6.47;;;;;;;;;;4218691;34;20136;-65
2022/02/09 07:59:18;;;;;;;5.93;5.32;;;;;;;;;;4218747;34;20125;-66
2022/02/09 08:01:45;;;;;;;7.95;6.22;;;;;;;;;;4218845;34;20203;-64
2022/02/09 08:04:12;;;;;;;6.62;6.03;;;;;;;;;;4218766;34;20201;-65
2022/02/09 08:06:39;;;;;;;7.18;6.47;;;;;;;;;;4218773;34;20109;-65
2022/02/09 08:09:12;;;;;;;6.70;5.93;;;;;;;;;;4218711;34;20128;-64
2022/02/09 08:26:05;;;;;;;6.57;5.80;;;;;;;;;;4218531;34;20125;-64
2022/02/09 08:32:50;;;;;;;6.25;5.68;;;;;;;;;;4217474;34;20089;-64
2022/02/09 08:35:16;;;;;;;;;;;;;;;;;;4217417;34;20121;-61
2022/02/09 08:37:44;;;;;;;;;;;;;;;;;;4217514;34;19992;-62
2022/02/09 08:40:13;;;;;;;6.15;5.55;;;;;;;;;;4217099;34;20077;-62
2022/02/09 08:42:41;;;;;;;6.18;5.57;;;;;;;;;;4216960;34;20102;-63
2022/02/09 08:45:08;;;;;;;5.47;4.97;;;;;;;;;;4217069;34;20109;-64
2022/02/09 08:47:35;;;;;;;7.95;5.75;;;;;;;;;;4217009;34;20093;-65
2022/02/09 08:50:02;;;;;;;6.60;6.00;;;;;;;;;;4216876;34;20124;-66
2022/02/09 08:52:28;;;;;;;5.60;5.10;;;;;;;;;;4217172;34;20097;-65
2022/02/09 08:54:54;;;;;;;5.55;5.00;;;;;;;;;;4216795;34;20125;-64
2022/02/09 08:57:21;;;;;;;5.72;5.22;;;;;;;;;;4217075;34;20109;-65
2022/02/09 08:59:49;;;;;;;5.80;5.18;;;;;;;;;;4216963;34;20117;-64
2022/02/09 09:02:19;;;;;;;5.90;5.30;;;;;;;;;;4217105;34;20184;-65
2022/02/09 09:04:55;;;;;;;6.43;5.82;;;;;;;;;;4217020;34;20129;-65
2022/02/09 09:07:25;;;;;;;6.20;5.30;;;;;;;;;;4218199;34;20109;-64
2022/02/09 09:58:08;;;;;;;5.80;5.20;;;;;;;;;;4215836;34;20129;-64
2022/02/09 10:30:53;;;;;;;5.62;4.53;;;;;;;;;;4209261;34;20113;-63
2022/02/09 10:34:23;;;;;;;7.07;5.25;;;;;;;;;;4210787;34;20132;-65
2022/02/09 10:37:02;;;;;;;5.35;4.85;;;;;;;;;;4213001;34;20148;-64
2022/02/09 10:40:02;;;;;;;5.43;4.93;;;;;;;;;;4206921;34;20463;-66
2022/02/09 10:42:42;;;;;;;8.80;5.50;;;;;;;;;;4219043;34;20135;-65
2022/02/09 10:45:30;;;;;;;7.18;4.85;;;;;;;;;;4207228;34;20116;-63
2022/02/09 10:47:57;;;;;;;5.32;4.82;;;;;;;;;;4206372;34;20097;-63
2022/02/09 10:50:27;;;;;;;4.93;4.43;;;;;;;;;;4193046;34;20206;-65
2022/02/09 10:52:57;;;;;;;5.30;4.80;;;;;;;;;;4207066;34;20081;-65
2022/02/09 10:55:30;;;;;;;5.97;4.82;;;;;;;;;;4219518;34;20118;-63
2022/02/09 10:57:57;;;;;;;5.80;5.20;;;;;;;;;;4219549;34;20125;-64
2022/02/09 11:00:24;;;;;;;5.40;4.90;;;;;;;;;;4219204;34;20156;-66
2022/02/09 11:02:50;;;;;;;5.68;5.10;;;;;;;;;;4219600;34;20128;-68
2022/02/09 11:05:20;;;;;;;6.10;5.00;;;;;;;;;;4219186;34;20117;-65
2022/02/09 11:07:48;;;;;;;6.93;4.85;;;;;;;;;;4219197;34;20124;-65
2022/02/09 11:10:14;;;;;;;5.78;5.07;;;;;;;;;;4218904;34;20145;-65
2022/02/09 11:12:44;;;;;;;5.22;4.72;;;;;;;;;;4218788;34;20554;-64
2022/02/09 11:15:14;;;;;;;5.72;5.07;;;;;;;;;;4218986;34;20125;-65
2022/02/09 11:17:46;;;;;;;5.22;4.72;;;;;;;;;;4219347;34;20106;-65
2022/02/09 11:20:14;;;;;;;5.57;5.07;;;;;;;;;;4206751;34;20112;-65
2022/02/09 11:22:43;;;;;;;6.18;5.12;;;;;;;;;;4219137;34;20101;-64
2022/02/09 11:25:15;;;;;;;5.53;5.03;;;;;;;;;;4219049;34;20086;-64
2022/02/09 11:27:49;;;;;;;5.65;5.15;;;;;;;;;;4219120;34;20117;-65
2022/02/09 11:30:31;;;;;;;6.07;5.18;;;;;;;;;;4218967;34;20129;-64
2022/02/09 11:33:06;;;;;;;6.00;5.40;;;;;;;;;;4219107;34;20767;-65
2022/02/09 11:35:39;;;;;;;5.85;5.05;;;;;;;;;;4218984;34;20129;-66
2022/02/09 11:38:17;;;;;;;5.90;5.00;;;;;;;;;;4219072;34;20094;-66
2022/02/09 11:43:19;;;;;;;6.37;5.68;;;;;;;;;;4219286;34;20502;-65
2022/02/09 12:11:15;;;;;;;7.53;5.95;;;;;;;;;;4219594;34;20093;-68
2022/02/09 12:13:54;;;;;;;6.05;5.45;;;;;;;;;;4207264;34;20090;-68
2022/02/09 12:19:32;;;;;;;9.63;5.70;;;;;;;;;;4196537;34;20189;-70
2022/02/09 12:22:10;;;;;;;6.72;6.10;;;;;;;;;;4195428;34;20105;-67
2022/02/09 12:24:36;;;;;;;7.90;6.53;;;;;;;;;;4218562;34;20105;-68
2022/02/09 12:27:15;;;;;;;7.90;6.82;;;;;;;;;;4218682;34;20106;-65
2022/02/09 12:29:46;;;;;;;8.02;7.22;;;;;;;;;;4218584;34;20097;-70
2022/02/09 12:32:15;;;;;;;7.47;6.78;;;;;;;;;;4218618;34;20104;-63
2022/02/09 12:35:06;;;;;;;8.18;7.30;;;;;;;;;;4218590;34;20124;-64
2022/02/09 12:37:39;;;;;;;7.55;6.85;;;;;;;;;;4218603;34;20541;-69
2022/02/09 12:40:34;;;;;;;9.05;8.15;;;;;;;;;;4218438;34;20201;-68
2022/02/09 12:43:00;;;;;;;7.28;6.57;;;;;;;;;;4205756;34;20109;-65
2022/02/09 12:45:28;;;;;;;7.28;6.57;;;;;;;;;;4218409;34;20113;-66
2022/02/09 12:48:03;;;;;;;8.25;7.45;;;;;;;;;;4218172;34;20101;-66
2022/02/09 12:50:33;;;;;;;7.75;7.05;;;;;;;;;;4218248;34;20217;-67
2022/02/09 12:52:59;;;;;;;7.93;7.12;;;;;;;;;;4218177;34;20106;-67
2022/02/09 12:55:28;;;;;;;8.13;6.87;;;;;;;;;;4218227;34;20624;-65
2022/02/09 12:58:00;;;;;;;8.57;6.85;;;;;;;;;;4218164;34;20536;-66
2022/02/09 13:00:38;;;;;;;8.80;7.90;;;;;;;;;;4218402;34;20102;-64
2022/02/09 13:03:07;;;;;;;8.48;7.62;;;;;;;;;;4218192;34;20225;-68
2022/02/09 13:05:45;;;;;;;8.73;7.82;;;;;;;;;;4218295;34;20123;-68
2022/02/09 13:08:11;;;;;;;8.85;7.95;;;;;;;;;;4218298;34;20117;-66
2022/02/09 13:10:39;;;;;;;8.10;7.30;;;;;;;;;;4218233;34;20175;-67
2022/02/09 13:13:16;;;;;;;8.63;7.60;;;;;;;;;;4218129;34;20145;-67
2022/02/09 13:23:45;;;;;;;9.25;8.10;;;;;;;;;;4218806;34;20528;-65
2022/02/09 14:11:07;;;;;;;8.65;7.43;;;;;;;;;;4217795;34;20192;-68
2022/02/09 14:35:34;;;;;;;7.45;6.75;;;;;;;;;;4217331;34;20095;-70
2022/02/09 14:52:00;;;;;;;7.60;6.90;;;;;;;;;;4219369;34;20129;-69
2022/02/09 14:57:05;;;;;;;7.20;6.50;;;;;;;;;;4219480;34;20219;-69
2022/02/09 15:00:03;;;;;;;6.62;6.03;;;;;;;;;;4218184;34;20101;-69
2022/02/09 15:07:56;;;;;;;7.40;6.70;;;;;;;;;;4207518;34;20109;-66
2022/02/09 15:10:38;;;;;;;7.03;6.43;;;;;;;;;;4219190;34;20119;-68
2022/02/09 15:13:23;;;;;;;7.45;6.75;;;;;;;;;;4219229;34;20552;-68
2022/02/09 15:16:00;;;;;;;7.78;7.07;;;;;;;;;;4219221;34;20122;-68
2022/02/09 15:23:57;;;;;;;8.30;7.50;;;;;;;;;;4218898;34;20528;-68
2022/02/09 15:26:23;;;;;;;10.10;9.10;;;;;;;;;;4219103;34;20121;-68
2022/02/09 15:28:51;;;;;;;7.75;7.05;;;;;;;;;;4218484;34;20114;-68
2022/02/09 15:31:29;;;;;;;7.55;6.90;;;;;;;;;;4218813;34;20462;-69
2022/02/09 15:34:10;;;;;;;8.07;7.37;;;;;;;;;;4206771;34;20200;-69
2022/02/09 15:39:19;;;;;;;7.70;7.00;;;;;;;;;;4204818;34;20133;-69
2022/02/09 15:58:34;;;;;;;8.82;8.02;;;;;;;;;;4204862;34;20129;-70
2022/02/09 16:38:09;;;;;;;8.07;7.28;;;;;;;;;;4204572;34;20161;-64
2022/02/09 16:46:14;;;;;;;9.00;7.75;;;;;;;;;;4218210;34;20136;-64
2022/02/09 16:48:47;;;;;;;9.43;7.82;;;;;;;;;;4217455;34;20116;-65
2022/02/09 16:51:17;;;;;;;8.75;7.95;;;;;;;;;;4217467;34;20143;-65
2022/02/09 17:20:47;;;;;;;8.00;7.18;;;;;;;;;;4215658;34;20129;-63
2022/02/09 17:23:13;;;;;;;7.55;6.85;;;;;;;;;;4216273;34;20110;-62
2022/02/09 17:25:39;;;;;;;7.85;7.05;;;;;;;;;;4216895;34;20136;-61
2022/02/09 17:28:09;;;;;;;7.30;6.60;;;;;;;;;;4217076;34;20617;-62
2022/02/09 17:36:04;;;;;;;7.95;7.03;;;;;;;;;;4216395;34;20447;-63
2022/02/09 17:38:41;;;;;;;7.87;6.90;;;;;;;;;;4207322;34;20110;-63
2022/02/09 17:57:48;;;;;;;7.30;6.57;;;;;;;;;;4217855;34;20128;-62
2022/02/09 18:00:17;;;;;;;7.78;7.07;;;;;;;;;;4217610;34;20216;-62
2022/02/09 18:02:51;;;;;;;7.93;7.12;;;;;;;;;;4217878;34;20533;-63
2022/02/09 18:07:59;;;;;;;7.07;6.37;;;;;;;;;;4207516;34;20105;-63
2022/02/09 18:31:36;;;;;;;6.78;6.07;;;;;;;;;;4218840;33;20133;-61
2022/02/09 18:34:44;;;;;;;7.50;6.70;;;;;;;;;;4224610;33;20093;-62
2022/02/09 18:48:04;;;;;;;7.12;5.47;;;;;;;;;;4227438;33;20093;-63
2022/02/09 19:31:25;;;;;;;6.65;6.00;;;;;;;;;;4224452;33;20101;-63
2022/02/09 19:45:13;;;;;;;7.75;6.53;;;;;;;;;;4224728;33;20133;-62
2022/02/09 19:47:12;;;;;;;7.12;6.43;;;;;;;;;;4220520;33;20526;-62
2022/02/09 19:52:34;;;;;;;7.05;6.32;;;;;;;;;;4224731;33;20224;-63
2022/02/09 19:55:30;;;;;;;7.43;6.53;;;;;;;;;;4226042;33;20092;-63
2022/02/09 19:57:58;;;;;;;7.07;6.37;;;;;;;;;;4225864;33;20117;-63
2022/02/09 20:00:27;;;;;;;7.40;6.70;;;;;;;;;;4224677;33;20137;-62
2022/02/09 20:02:53;;;;;;;7.35;6.65;;;;;;;;;;4225840;33;20100;-63
2022/02/09 20:05:20;;;;;;;7.75;6.90;;;;;;;;;;4225826;33;20124;-64
2022/02/09 20:07:48;;;;;;;7.15;6.45;;;;;;;;;;4224775;33;20427;-63
2022/02/09 20:10:14;;;;;;;7.72;6.60;;;;;;;;;;4225549;33;20537;-63
2022/02/09 20:12:40;;;;;;;7.05;6.35;;;;;;;;;;4226245;33;20098;-63
2022/02/09 20:15:11;;;;;;;7.80;6.32;;;;;;;;;;4224520;33;20109;-63
2022/02/09 20:17:39;;;;;;;7.03;6.30;;;;;;;;;;4225340;33;20097;-64
2022/02/09 20:20:08;;;;;;;8.85;6.25;;;;;;;;;;4225998;33;20127;-63
2022/02/09 20:22:34;;;;;;;7.50;6.80;;;;;;;;;;4225409;33;20108;-64
2022/02/09 20:25:01;;;;;;;9.30;7.53;;;;;;;;;;4223751;33;20093;-64
2022/02/09 20:27:29;;;;;;;7.68;6.87;;;;;;;;;;4223590;33;20108;-64
2022/02/09 20:29:56;;;;;;;8.10;6.90;;;;;;;;;;4225128;33;20105;-64
2022/02/09 20:32:29;;;;;;;7.20;6.50;;;;;;;;;;4224315;33;20106;-62
2022/02/09 20:34:57;;;;;;;7.20;6.50;;;;;;;;;;4223422;33;20260;-62
2022/02/09 20:37:26;;;;;;;7.32;6.62;;;;;;;;;;4226296;33;20117;-63
2022/02/09 20:40:20;;;;;;;7.82;6.70;;;;;;;;;;4224829;33;20124;-62
2022/02/09 20:42:48;;;;;;;6.70;6.00;;;;;;;;;;4212210;33;20200;-62
2022/02/09 20:45:23;;;;;;;7.62;6.80;;;;;;;;;;4224921;33;20125;-62
2022/02/09 20:47:56;;;;;;;7.87;6.20;;;;;;;;;;4222809;33;20225;-62
2022/02/09 20:50:23;;;;;;;7.37;6.10;;;;;;;;;;4224469;33;21923;-61
2022/02/09 20:52:49;;;;;;;7.05;6.35;;;;;;;;;;4222863;33;20132;-61
2022/02/09 20:55:15;;;;;;;7.50;6.65;;;;;;;;;;4224998;33;20672;-61
2022/02/09 20:57:41;;;;;;;9.05;7.00;;;;;;;;;;4225801;33;20113;-61
2022/02/09 21:00:12;;;;;;;8.85;6.53;;;;;;;;;;4225776;33;20780;-61
2022/02/09 21:10:51;;;;;;;8.23;7.43;;;;;;;;;;4223782;33;20530;-61
2022/02/09 21:21:47;;;;;;;8.27;6.90;;;;;;;;;;4223834;33;20117;-61
2022/02/09 21:32:34;;;;;;;7.97;6.85;;;;;;;;;;4222936;33;20117;-61
2022/02/09 21:59:24;;;;;;;7.80;7.00;;;;;;;;;;4224961;33;20116;-63
2022/02/09 22:21:20;;;;;;;8.02;7.03;;;;;;;;;;4226480;33;20117;-61
2022/02/09 22:29:07;;;;;;;7.72;6.82;;;;;;;;;;4226261;33;20510;-62
2022/02/09 22:31:56;;;;;;;7.80;6.53;;;;;;;;;;4226382;33;20125;-62
2022/02/09 22:48:00;;;;;;;7.57;6.62;;;;;;;;;;4224383;33;20205;-62
2022/02/09 22:55:52;;;;;;;9.15;6.07;;;;;;;;;;4224284;33;20105;-62
2022/02/09 22:58:18;;;;;;;6.35;5.75;;;;;;;;;;4226214;33;20141;-63
2022/02/09 23:03:33;;;;;;;7.22;6.53;;;;;;;;;;4226368;33;20789;-62
2022/02/09 23:06:12;;;;;;;6.87;5.95;;;;;;;;;;4225470;33;20240;-62
2022/02/09 23:20:28;;;;;;;6.43;5.72;;;;;;;;;;4225488;33;20200;-63
